sensor_id;sensor_type;location;lat;lon;timestamp;pressure;altitude;pressure_sealevel;temperature;humidity
19600;BME280;9947;57.722;12.012;2023-11-18T00:02:00;102702.97;;;-1.63;100.00
19600;BME280;9947;57.722;12.012;2023-11-18T00:04:27;102698.56;;;-1.59;100.00
19600;BME280;9947;57.722;12.012;2023-11-18T00:06:56;102695.03;;;-1.58;100.00
19600;BME280;9947;57.722;12.012;2023-11-18T00:09:24;102691.50;;;-1.57;100.00
19600;BME280;9947;57.722;12.012;2023-11-18T00:11:52;102695.06;;;-1.55;100.00
19600;BME280;9947;57.722;12.012;2023-11-18T00:14:20;102688.88;;;-1.56;100.00
19600;BME280;9947;57.722;12.012;2023-11-18T00:16:50;102693.31;;;-1.53;100.00
19600;BME280;9947;57.722;12.012;2023-11-18T00:19:18;102691.53;;;-1.49;100.00
19600;BME280;9947;57.722;12.012;2023-11-18T00:21:46;102694.19;;;-1.49;100.00
19600;BME280;9947;57.722;12.012;2023-11-18T00:24:13;102696.00;;;-1.42;100.00
19600;BME280;9947;57.722;12.012;2023-11-18T00:26:41;102685.38;;;-1.42;100.00
19600;BME280;9947;57.722;12.012;2023-11-18T00:29:11;102688.03;;;-1.44;100.00
19600;BME280;9947;57.722;12.012;2023-11-18T00:31:39;102693.34;;;-1.42;100.00
19600;BME280;9947;57.722;12.012;2023-11-18T00:34:11;102680.06;;;-1.42;100.00
19600;BME280;9947;57.722;12.012;2023-11-18T00:36:54;102680.09;;;-1.39;100.00
19600;BME280;9947;57.722;12.012;2023-11-18T00:39:24;102680.97;;;-1.39;100.00
19600;BME280;9947;57.722;12.012;2023-11-18T00:41:53;102671.16;;;-1.60;100.00
19600;BME280;9947;57.722;12.012;2023-11-18T00:44:21;102665.91;;;-1.53;100.00
19600;BME280;9947;57.722;12.012;2023-11-18T00:46:52;102663.25;;;-1.50;100.00
19600;BME280;9947;57.722;12.012;2023-11-18T00:49:36;102662.34;;;-1.56;100.00
19600;BME280;9947;57.722;12.012;2023-11-18T00:52:06;102654.34;;;-1.60;100.00
19600;BME280;9947;57.722;12.012;2023-11-18T00:54:37;102662.31;;;-1.62;100.00
19600;BME280;9947;57.722;12.012;2023-11-18T00:57:05;102659.63;;;-1.68;100.00
19600;BME280;9947;57.722;12.012;2023-11-18T00:59:33;102650.78;;;-1.67;100.00
19600;BME280;9947;57.722;12.012;2023-11-18T01:02:01;102643.72;;;-1.71;100.00
19600;BME280;9947;57.722;12.012;2023-11-18T01:04:30;102633.09;;;-1.78;100.00
19600;BME280;9947;57.722;12.012;2023-11-18T01:07:10;102640.16;;;-1.76;100.00
19600;BME280;9947;57.722;12.012;2023-11-18T01:09:46;102634.88;;;-1.76;100.00
19600;BME280;9947;57.722;12.012;2023-11-18T01:12:34;102647.25;;;-1.75;100.00
19600;BME280;9947;57.722;12.012;2023-11-18T01:15:04;102640.19;;;-1.71;100.00
19600;BME280;9947;57.722;12.012;2023-11-18T01:17:36;102635.75;;;-1.75;100.00
19600;BME280;9947;57.722;12.012;2023-11-18T01:20:17;102640.16;;;-1.76;100.00
19600;BME280;9947;57.722;12.012;2023-11-18T01:22:50;102633.91;;;-1.84;100.00
19600;BME280;9947;57.722;12.012;2023-11-18T01:25:21;102630.34;;;-1.92;100.00
19600;BME280;9947;57.722;12.012;2023-11-18T01:27:51;102632.13;;;-1.88;100.00
19600;BME280;9947;57.722;12.012;2023-11-18T01:30:21;102630.38;;;-1.88;100.00
19600;BME280;9947;57.722;12.012;2023-11-18T01:32:49;102630.34;;;-1.92;100.00
19600;BME280;9947;57.722;12.012;2023-11-18T01:35:17;102625.94;;;-1.95;100.00
19600;BME280;9947;57.722;12.012;2023-11-18T01:38:01;102625.03;;;-1.97;100.00
19600;BME280;9947;57.722;12.012;2023-11-18T01:40:33;102629.47;;;-1.93;100.00
19600;BME280;9947;57.722;12.012;2023-11-18T01:43:03;102622.38;;;-2.00;100.00
19600;BME280;9947;57.722;12.012;2023-11-18T01:45:39;102619.72;;;-2.04;100.00
19600;BME280;9947;57.722;12.012;2023-11-18T01:48:08;102618.81;;;-2.05;100.00
19600;BME280;9947;57.722;12.012;2023-11-18T01:50:36;102628.56;;;-2.02;100.00
19600;BME280;9947;57.722;12.012;2023-11-18T01:53:20;102621.41;;;-2.12;100.00
19600;BME280;9947;57.722;12.012;2023-11-18T01:55:50;102628.47;;;-2.11;100.00
19600;BME280;9947;57.722;12.012;2023-11-18T01:58:21;102622.28;;;-2.15;100.00
19600;BME280;9947;57.722;12.012;2023-11-18T02:00:54;102628.47;;;-2.14;100.00
19600;BME280;9947;57.722;12.012;2023-11-18T02:03:27;102629.31;;;-2.20;100.00
19600;BME280;9947;57.722;12.012;2023-11-18T02:06:00;102624.03;;;-2.19;100.00
19600;BME280;9947;57.722;12.012;2023-11-18T02:08:47;102630.22;;;-2.15;100.00
19600;BME280;9947;57.722;12.012;2023-11-18T02:11:23;102639.97;;;-2.11;100.00
19600;BME280;9947;57.722;12.012;2023-11-18T02:13:59;102644.38;;;-2.11;100.00
19600;BME280;9947;57.722;12.012;2023-11-18T02:16:36;102631.13;;;-2.11;100.00
19600;BME280;9947;57.722;12.012;2023-11-18T02:19:14;102639.06;;;-2.11;100.00
19600;BME280;9947;57.722;12.012;2023-11-18T02:21:45;102641.69;;;-2.16;100.00
19600;BME280;9947;57.722;12.012;2023-11-18T02:24:26;102638.16;;;-2.20;100.00
19600;BME280;9947;57.722;12.012;2023-11-18T02:27:04;102637.28;;;-2.20;100.00
19600;BME280;9947;57.722;12.012;2023-11-18T02:29:35;102635.50;;;-2.23;100.00
19600;BME280;9947;57.722;12.012;2023-11-18T02:32:20;102643.44;;;-2.24;100.00
19600;BME280;9947;57.722;12.012;2023-11-18T02:34:56;102642.53;;;-2.29;100.00
19600;BME280;9947;57.722;12.012;2023-11-18T02:37:30;102642.53;;;-2.28;100.00
19600;BME280;9947;57.722;12.012;2023-11-18T02:40:03;102652.25;;;-2.24;100.00
19600;BME280;9947;57.722;12.012;2023-11-18T02:42:43;102651.38;;;-2.26;100.00
19600;BME280;9947;57.722;12.012;2023-11-18T02:45:14;102657.53;;;-2.27;100.00
19600;BME280;9947;57.722;12.012;2023-11-18T02:47:43;102653.09;;;-2.31;100.00
19600;BME280;9947;57.722;12.012;2023-11-18T02:50:27;102645.16;;;-2.29;100.00
19600;BME280;9947;57.722;12.012;2023-11-18T02:52:56;102651.34;;;-2.29;100.00
19600;BME280;9947;57.722;12.012;2023-11-18T02:55:28;102654.91;;;-2.24;100.00
19600;BME280;9947;57.722;12.012;2023-11-18T02:58:09;102655.75;;;-2.31;100.00
19600;BME280;9947;57.722;12.012;2023-11-18T03:00:43;102658.41;;;-2.29;100.00
19600;BME280;9947;57.722;12.012;2023-11-18T03:03:10;102666.38;;;-2.25;100.00
19600;BME280;9947;57.722;12.012;2023-11-18T03:05:41;102673.47;;;-2.21;100.00
19600;BME280;9947;57.722;12.012;2023-11-18T03:08:08;102671.69;;;-2.22;100.00
19600;BME280;9947;57.722;12.012;2023-11-18T03:10:37;102676.13;;;-2.21;100.00
19600;BME280;9947;57.722;12.012;2023-11-18T03:13:10;102679.69;;;-2.12;100.00
19600;BME280;9947;57.722;12.012;2023-11-18T03:15:38;102682.41;;;-2.08;100.00
19600;BME280;9947;57.722;12.012;2023-11-18T03:18:05;102675.28;;;-2.12;100.00
19600;BME280;9947;57.722;12.012;2023-11-18T03:20:36;102670.88;;;-2.13;100.00
19600;BME280;9947;57.722;12.012;2023-11-18T03:23:05;102674.41;;;-2.09;100.00
19600;BME280;9947;57.722;12.012;2023-11-18T03:25:35;102670.88;;;-2.08;100.00
19600;BME280;9947;57.722;12.012;2023-11-18T03:28:17;102664.69;;;-2.10;100.00
19600;BME280;9947;57.722;12.012;2023-11-18T03:30:44;102663.84;;;-2.08;100.00
19600;BME280;9947;57.722;12.012;2023-11-18T03:33:23;102652.25;;;-2.24;100.00
19600;BME280;9947;57.722;12.012;2023-11-18T03:35:58;102649.63;;;-2.22;100.00
19600;BME280;9947;57.722;12.012;2023-11-18T03:38:49;102655.78;;;-2.25;100.00
19600;BME280;9947;57.722;12.012;2023-11-18T03:41:20;102661.13;;;-2.15;100.00
19600;BME280;9947;57.722;12.012;2023-11-18T03:43:51;102658.50;;;-2.11;100.00
19600;BME280;9947;57.722;12.012;2023-11-18T03:46:33;102656.75;;;-2.10;100.00
19600;BME280;9947;57.722;12.012;2023-11-18T03:49:01;102651.38;;;-2.23;100.00
19600;BME280;9947;57.722;12.012;2023-11-18T03:51:45;102663.78;;;-2.19;100.00
19600;BME280;9947;57.722;12.012;2023-11-18T03:54:15;102664.66;;;-2.17;100.00
19600;BME280;9947;57.722;12.012;2023-11-18T03:56:44;102653.03;;;-2.35;100.00
19600;BME280;9947;57.722;12.012;2023-11-18T03:59:17;102655.75;;;-2.29;100.00
19600;BME280;9947;57.722;12.012;2023-11-18T04:01:45;102663.78;;;-2.15;100.00
19600;BME280;9947;57.722;12.012;2023-11-18T04:04:15;102656.63;;;-2.32;100.00
19600;BME280;9947;57.722;12.012;2023-11-18T04:06:44;102661.97;;;-2.23;100.00
19600;BME280;9947;57.722;12.012;2023-11-18T04:09:14;102655.75;;;-2.29;100.00
19600;BME280;9947;57.722;12.012;2023-11-18T04:11:44;102658.41;;;-2.31;100.00
19600;BME280;9947;57.722;12.012;2023-11-18T04:14:26;102660.13;;;-2.34;100.00
19600;BME280;9947;57.722;12.012;2023-11-18T04:16:59;102656.59;;;-2.35;100.00
19600;BME280;9947;57.722;12.012;2023-11-18T04:19:26;102661.03;;;-2.34;100.00
19600;BME280;9947;57.722;12.012;2023-11-18T04:21:54;102662.81;;;-2.30;100.00
19600;BME280;9947;57.722;12.012;2023-11-18T04:24:32;102660.94;;;-2.44;100.00
19600;BME280;9947;57.722;12.012;2023-11-18T04:27:00;102652.13;;;-2.42;100.00
19600;BME280;9947;57.722;12.012;2023-11-18T04:29:30;102661.09;;;-2.23;100.00
19600;BME280;9947;57.722;12.012;2023-11-18T04:32:02;102663.75;;;-2.25;100.00
19600;BME280;9947;57.722;12.012;2023-11-18T04:34:30;102653.94;;;-2.35;100.00
19600;BME280;9947;57.722;12.012;2023-11-18T04:36:59;102660.97;;;-2.37;100.00
19600;BME280;9947;57.722;12.012;2023-11-18T04:39:26;102657.41;;;-2.46;100.00
19600;BME280;9947;57.722;12.012;2023-11-18T04:41:56;102664.44;;;-2.47;100.00
19600;BME280;9947;57.722;12.012;2023-11-18T04:44:23;102667.97;;;-2.51;100.00
19600;BME280;9947;57.722;12.012;2023-11-18T04:46:56;102672.41;;;-2.44;100.00
19600;BME280;9947;57.722;12.012;2023-11-18T04:49:25;102667.97;;;-2.51;100.00
19600;BME280;9947;57.722;12.012;2023-11-18T04:52:07;102667.13;;;-2.44;100.00
19600;BME280;9947;57.722;12.012;2023-11-18T04:54:35;102666.19;;;-2.52;100.00
19600;BME280;9947;57.722;12.012;2023-11-18T04:57:03;102660.03;;;-2.50;100.00
19600;BME280;9947;57.722;12.012;2023-11-18T04:59:32;102655.59;;;-2.51;100.00
19600;BME280;9947;57.722;12.012;2023-11-18T05:02:03;102646.78;;;-2.50;100.00
19600;BME280;9947;57.722;12.012;2023-11-18T05:04:34;102653.81;;;-2.53;100.00
19600;BME280;9947;57.722;12.012;2023-11-18T05:07:02;102645.88;;;-2.53;100.00
19600;BME280;9947;57.722;12.012;2023-11-18T05:09:31;102652.97;;;-2.46;100.00
19600;BME280;9947;57.722;12.012;2023-11-18T05:12:00;102655.59;;;-2.51;100.00
19600;BME280;9947;57.722;12.012;2023-11-18T05:14:31;102657.38;;;-2.51;100.00
19600;BME280;9947;57.722;12.012;2023-11-18T05:16:58;102659.19;;;-2.42;100.00
19600;BME280;9947;57.722;12.012;2023-11-18T05:19:32;102661.88;;;-2.36;100.00
19600;BME280;9947;57.722;12.012;2023-11-18T05:22:00;102664.50;;;-2.39;100.00
19600;BME280;9947;57.722;12.012;2023-11-18T05:24:28;102658.22;;;-2.54;100.00
19600;BME280;9947;57.722;12.012;2023-11-18T05:26:58;102660.03;;;-2.50;100.00
19600;BME280;9947;57.722;12.012;2023-11-18T05:29:27;102657.38;;;-2.51;100.00
19600;BME280;9947;57.722;12.012;2023-11-18T05:31:56;102658.25;;;-2.51;100.00
19600;BME280;9947;57.722;12.012;2023-11-18T05:34:24;102657.41;;;-2.46;100.00
19600;BME280;9947;57.722;12.012;2023-11-18T05:37:08;102657.38;;;-2.48;100.00
19600;BME280;9947;57.722;12.012;2023-11-18T05:39:50;102652.84;;;-2.61;100.00
19600;BME280;9947;57.722;12.012;2023-11-18T05:42:25;102647.47;;;-2.73;100.00
19600;BME280;9947;57.722;12.012;2023-11-18T05:44:52;102643.03;;;-2.79;100.00
19600;BME280;9947;57.722;12.012;2023-11-18T05:47:25;102644.78;;;-2.78;100.00
19600;BME280;9947;57.722;12.012;2023-11-18T05:49:54;102641.28;;;-2.74;100.00
19600;BME280;9947;57.722;12.012;2023-11-18T05:52:27;102643.94;;;-2.74;100.00
19600;BME280;9947;57.722;12.012;2023-11-18T05:54:55;102652.00;;;-2.60;100.00
19600;BME280;9947;57.722;12.012;2023-11-18T05:57:23;102657.31;;;-2.60;100.00
19600;BME280;9947;57.722;12.012;2023-11-18T05:59:57;102657.22;;;-2.66;100.00
19600;BME280;9947;57.722;12.012;2023-11-18T06:02:25;102661.66;;;-2.65;100.00
19600;BME280;9947;57.722;12.012;2023-11-18T06:04:53;102664.31;;;-2.64;100.00
19600;BME280;9947;57.722;12.012;2023-11-18T06:07:33;102666.94;;;-2.64;100.00
19600;BME280;9947;57.722;12.012;2023-11-18T06:10:01;102664.25;;;-2.70;100.00
19600;BME280;9947;57.722;12.012;2023-11-18T06:12:31;102673.09;;;-2.69;100.00
19600;BME280;9947;57.722;12.012;2023-11-18T06:14:58;102674.03;;;-2.61;100.00
19600;BME280;9947;57.722;12.012;2023-11-18T06:17:44;102677.63;;;-2.59;100.00
19600;BME280;9947;57.722;12.012;2023-11-18T06:20:13;102675.72;;;-2.72;100.00
19600;BME280;9947;57.722;12.012;2023-11-18T06:22:46;102668.63;;;-2.78;100.00
19600;BME280;9947;57.722;12.012;2023-11-18T06:25:17;102663.38;;;-2.69;100.00
19600;BME280;9947;57.722;12.012;2023-11-18T06:27:48;102660.69;;;-2.76;100.00
19600;BME280;9947;57.722;12.012;2023-11-18T06:30:17;102664.22;;;-2.76;100.00
19600;BME280;9947;57.722;12.012;2023-11-18T06:32:45;102661.56;;;-2.76;100.00
19600;BME280;9947;57.722;12.012;2023-11-18T06:35:13;102669.53;;;-2.74;100.00
19600;BME280;9947;57.722;12.012;2023-11-18T06:37:42;102669.44;;;-2.84;100.00
19600;BME280;9947;57.722;12.012;2023-11-18T06:40:15;102673.88;;;-2.81;100.00
19600;BME280;9947;57.722;12.012;2023-11-18T06:42:49;102672.03;;;-2.87;100.00
19600;BME280;9947;57.722;12.012;2023-11-18T06:45:16;102667.63;;;-2.88;100.00
19600;BME280;9947;57.722;12.012;2023-11-18T06:47:45;102677.47;;;-2.74;100.00
19600;BME280;9947;57.722;12.012;2023-11-18T06:50:12;102672.16;;;-2.77;100.00
19600;BME280;9947;57.722;12.012;2023-11-18T06:52:41;102674.75;;;-2.84;100.00
19600;BME280;9947;57.722;12.012;2023-11-18T06:55:09;102679.19;;;-2.80;100.00
19600;BME280;9947;57.722;12.012;2023-11-18T06:57:41;102688.13;;;-2.65;100.00
19600;BME280;9947;57.722;12.012;2023-11-18T07:00:10;102688.97;;;-2.68;100.00
19600;BME280;9947;57.722;12.012;2023-11-18T07:02:40;102687.25;;;-2.63;100.00
19600;BME280;9947;57.722;12.012;2023-11-18T07:05:22;102692.59;;;-2.60;100.00
19600;BME280;9947;57.722;12.012;2023-11-18T07:07:50;102702.38;;;-2.51;100.00
19600;BME280;9947;57.722;12.012;2023-11-18T07:10:20;102690.97;;;-2.42;100.00
19600;BME280;9947;57.722;12.012;2023-11-18T07:13:09;102683.81;;;-2.56;100.00
19600;BME280;9947;57.722;12.012;2023-11-18T07:15:39;102694.50;;;-2.42;100.00
19600;BME280;9947;57.722;12.012;2023-11-18T07:18:12;102707.84;;;-2.30;100.00
19600;BME280;9947;57.722;12.012;2023-11-18T07:20:41;102705.22;;;-2.30;100.00
19600;BME280;9947;57.722;12.012;2023-11-18T07:23:11;102693.63;;;-2.41;100.00
19600;BME280;9947;57.722;12.012;2023-11-18T07:25:39;102699.00;;;-2.32;100.00
19600;BME280;9947;57.722;12.012;2023-11-18T07:28:11;102713.22;;;-2.21;100.00
19600;BME280;9947;57.722;12.012;2023-11-18T07:30:41;102718.66;;;-1.99;100.00
19600;BME280;9947;57.722;12.012;2023-11-18T07:33:12;102716.91;;;-2.00;100.00
19600;BME280;9947;57.722;12.012;2023-11-18T07:35:47;102710.69;;;-2.07;100.00
19600;BME280;9947;57.722;12.012;2023-11-18T07:38:32;102716.09;;;-1.86;100.00
19600;BME280;9947;57.722;12.012;2023-11-18T07:41:02;102720.56;;;-1.81;100.00
19600;BME280;9947;57.722;12.012;2023-11-18T07:43:32;102705.38;;;-2.05;100.00
19600;BME280;9947;57.722;12.012;2023-11-18T07:46:01;102697.34;;;-2.16;100.00
19600;BME280;9947;57.722;12.012;2023-11-18T07:48:33;102700.88;;;-2.15;100.00
19600;BME280;9947;57.722;12.012;2023-11-18T07:51:01;102703.66;;;-1.99;100.00
19600;BME280;9947;57.722;12.012;2023-11-18T07:53:33;102713.44;;;-1.87;100.00
19600;BME280;9947;57.722;12.012;2023-11-18T07:56:04;102720.63;;;-1.69;100.00
19600;BME280;9947;57.722;12.012;2023-11-18T07:58:35;102712.69;;;-1.60;100.00
19600;BME280;9947;57.722;12.012;2023-11-18T08:01:04;102704.69;;;-1.72;100.00
19600;BME280;9947;57.722;12.012;2023-11-18T08:03:34;102699.41;;;-1.65;100.00
19600;BME280;9947;57.722;12.012;2023-11-18T08:06:08;102710.03;;;-1.62;100.00
19600;BME280;9947;57.722;12.012;2023-11-18T08:08:38;102704.75;;;-1.59;100.00
19600;BME280;9947;57.722;12.012;2023-11-18T08:11:10;102712.81;;;-1.37;100.00
19600;BME280;9947;57.722;12.012;2023-11-18T08:13:40;102696.88;;;-1.36;100.00
19600;BME280;9947;57.722;12.012;2023-11-18T08:16:11;102688.00;;;-1.51;100.00
19600;BME280;9947;57.722;12.012;2023-11-18T08:18:40;102687.13;;;-1.47;100.00
19600;BME280;9947;57.722;12.012;2023-11-18T08:21:07;102686.25;;;-1.40;100.00
19600;BME280;9947;57.722;12.012;2023-11-18T08:23:50;102666.78;;;-1.50;100.00
19600;BME280;9947;57.722;12.012;2023-11-18T08:26:19;102672.91;;;-1.59;100.00
19600;BME280;9947;57.722;12.012;2023-11-18T08:29:14;102681.88;;;-1.32;100.00
19600;BME280;9947;57.722;12.012;2023-11-18T08:31:45;102666.88;;;-1.24;100.00
19600;BME280;9947;57.722;12.012;2023-11-18T08:34:23;102659.78;;;-1.30;100.00
19600;BME280;9947;57.722;12.012;2023-11-18T08:36:51;102656.28;;;-1.12;100.00
19600;BME280;9947;57.722;12.012;2023-11-18T08:39:20;102657.16;;;-1.07;100.00
19600;BME280;9947;57.722;12.012;2023-11-18T08:41:51;102639.47;;;-1.08;100.00
19600;BME280;9947;57.722;12.012;2023-11-18T08:44:27;102640.38;;;-0.92;100.00
19600;BME280;9947;57.722;12.012;2023-11-18T08:47:01;102622.72;;;-0.78;100.00
19600;BME280;9947;57.722;12.012;2023-11-18T08:49:34;102618.25;;;-0.80;100.00
19600;BME280;9947;57.722;12.012;2023-11-18T08:52:04;102594.34;;;-0.82;100.00
19600;BME280;9947;57.722;12.012;2023-11-18T08:54:35;102577.56;;;-1.01;100.00
19600;BME280;9947;57.722;12.012;2023-11-18T08:57:04;102558.06;;;-1.10;100.00
19600;BME280;9947;57.722;12.012;2023-11-18T09:00:04;102541.28;;;-1.18;100.00
19600;BME280;9947;57.722;12.012;2023-11-18T09:02:59;102528.88;;;-1.13;100.00
19600;BME280;9947;57.722;12.012;2023-11-18T09:05:35;102524.47;;;-0.98;100.00
19600;BME280;9947;57.722;12.012;2023-11-18T09:08:04;102521.78;;;-0.72;100.00
19600;BME280;9947;57.722;12.012;2023-11-18T09:10:32;102511.16;;;-0.70;100.00
19600;BME280;9947;57.722;12.012;2023-11-18T09:13:00;102493.50;;;-0.96;100.00
19600;BME280;9947;57.722;12.012;2023-11-18T09:15:49;102482.00;;;-0.99;100.00
19600;BME280;9947;57.722;12.012;2023-11-18T09:18:22;102489.03;;;-0.86;100.00
19600;BME280;9947;57.722;12.012;2023-11-18T09:20:57;102487.22;;;-0.56;100.00
19600;BME280;9947;57.722;12.012;2023-11-18T09:23:29;102483.63;;;-0.43;100.00
19600;BME280;9947;57.722;12.012;2023-11-18T09:26:00;102479.13;;;-0.29;100.00
19600;BME280;9947;57.722;12.012;2023-11-18T09:28:33;102477.28;;;-0.10;100.00
19600;BME280;9947;57.722;12.012;2023-11-18T09:31:20;102457.94;;;-0.40;100.00
19600;BME280;9947;57.722;12.012;2023-11-18T09:33:48;102453.50;;;-0.36;100.00
19600;BME280;9947;57.722;12.012;2023-11-18T09:36:19;102451.69;;;-0.33;100.00
19600;BME280;9947;57.722;12.012;2023-11-18T09:38:54;102439.25;;;-0.21;100.00
19600;BME280;9947;57.722;12.012;2023-11-18T09:41:27;102432.19;;;-0.32;100.00
19600;BME280;9947;57.722;12.012;2023-11-18T09:43:56;102429.63;;;-0.44;100.00
19600;BME280;9947;57.722;12.012;2023-11-18T09:46:31;102425.28;;;-0.69;100.00
19600;BME280;9947;57.722;12.012;2023-11-18T09:49:06;102430.53;;;-0.51;100.00
19600;BME280;9947;57.722;12.012;2023-11-18T09:51:47;102425.22;;;-0.46;100.00
19600;BME280;9947;57.722;12.012;2023-11-18T09:54:21;102425.13;;;-0.34;100.00
19600;BME280;9947;57.722;12.012;2023-11-18T09:57:02;102416.34;;;-0.44;100.00
19600;BME280;9947;57.722;12.012;2023-11-18T09:59:41;102409.97;;;-0.12;100.00
19600;BME280;9947;57.722;12.012;2023-11-18T10:02:13;102398.47;;;-0.14;100.00
19600;BME280;9947;57.722;12.012;2023-11-18T10:04:47;102398.53;;;-0.25;100.00
19600;BME280;9947;57.722;12.012;2023-11-18T10:07:23;102391.34;;;-0.11;100.00
19600;BME280;9947;57.722;12.012;2023-11-18T10:09:54;102373.53;;;0.05;100.00
19600;BME280;9947;57.722;12.012;2023-11-18T10:12:22;102367.19;;;0.20;100.00
19600;BME280;9947;57.722;12.012;2023-11-18T10:14:53;102357.41;;;0.23;100.00
19600;BME280;9947;57.722;12.012;2023-11-18T10:17:23;102356.34;;;0.43;100.00
19600;BME280;9947;57.722;12.012;2023-11-18T10:19:52;102330.59;;;0.48;100.00
19600;BME280;9947;57.722;12.012;2023-11-18T10:22:25;102307.09;;;0.02;100.00
19600;BME280;9947;57.722;12.012;2023-11-18T10:25:05;102310.69;;;-0.10;100.00
19600;BME280;9947;57.722;12.012;2023-11-18T10:27:34;102311.47;;;0.08;100.00
19600;BME280;9947;57.722;12.012;2023-11-18T10:30:17;102310.53;;;0.13;100.00
19600;BME280;9947;57.722;12.012;2023-11-18T10:33:01;102307.03;;;0.08;100.00
19600;BME280;9947;57.722;12.012;2023-11-18T10:35:32;102301.69;;;0.10;100.00
19600;BME280;9947;57.722;12.012;2023-11-18T10:38:01;102304.22;;;0.26;100.00
19600;BME280;9947;57.722;12.012;2023-11-18T10:40:33;102296.31;;;0.16;100.00
19600;BME280;9947;57.722;12.012;2023-11-18T10:43:03;102297.16;;;0.19;100.00
19600;BME280;9947;57.722;12.012;2023-11-18T10:45:36;102298.84;;;0.31;100.00
19600;BME280;9947;57.722;12.012;2023-11-18T10:48:08;102293.47;;;0.37;100.00
19600;BME280;9947;57.722;12.012;2023-11-18T10:50:39;102286.41;;;0.35;100.00
19600;BME280;9947;57.722;12.012;2023-11-18T10:53:08;102284.66;;;0.30;100.00
19600;BME280;9947;57.722;12.012;2023-11-18T10:55:40;102288.06;;;0.45;100.00
19600;BME280;9947;57.722;12.012;2023-11-18T10:58:07;102283.44;;;0.64;100.00
19600;BME280;9947;57.722;12.012;2023-11-18T11:00:48;102277.25;;;0.60;100.00
19600;BME280;9947;57.722;12.012;2023-11-18T11:03:20;102271.97;;;0.57;100.00
19600;BME280;9947;57.722;12.012;2023-11-18T11:05:49;102264.63;;;0.77;100.00
19600;BME280;9947;57.722;12.012;2023-11-18T11:08:20;102263.09;;;0.58;100.00
19600;BME280;9947;57.722;12.012;2023-11-18T11:10:49;102253.38;;;0.55;100.00
19600;BME280;9947;57.722;12.012;2023-11-18T11:13:18;102254.22;;;0.59;100.00
19600;BME280;9947;57.722;12.012;2023-11-18T11:15:51;102252.25;;;0.73;100.00
19600;BME280;9947;57.722;12.012;2023-11-18T11:18:28;102247.84;;;0.71;100.00
19600;BME280;9947;57.722;12.012;2023-11-18T11:21:05;102247.06;;;0.64;100.00
19600;BME280;9947;57.722;12.012;2023-11-18T11:23:50;102247.78;;;0.77;100.00
19600;BME280;9947;57.722;12.012;2023-11-18T11:26:33;102249.22;;;1.02;100.00
19600;BME280;9947;57.722;12.012;2023-11-18T11:29:14;102226.13;;;1.06;100.00
19600;BME280;9947;57.722;12.012;2023-11-18T11:31:51;102227.00;;;1.06;100.00
19600;BME280;9947;57.722;12.012;2023-11-18T11:34:27;102221.72;;;1.02;100.00
19600;BME280;9947;57.722;12.012;2023-11-18T11:36:59;102220.09;;;0.91;100.00
19600;BME280;9947;57.722;12.012;2023-11-18T11:39:28;102221.38;;;1.26;100.00
19600;BME280;9947;57.722;12.012;2023-11-18T11:42:02;102213.91;;;1.49;100.00
19600;BME280;9947;57.722;12.012;2023-11-18T11:44:35;102206.75;;;1.53;100.00
19600;BME280;9947;57.722;12.012;2023-11-18T11:47:08;102191.84;;;1.41;100.00
19600;BME280;9947;57.722;12.012;2023-11-18T11:49:46;102184.50;;;1.57;100.00
19600;BME280;9947;57.722;12.012;2023-11-18T11:52:26;102186.56;;;1.92;100.00
19600;BME280;9947;57.722;12.012;2023-11-18T11:55:04;102171.16;;;1.55;100.00
19600;BME280;9947;57.722;12.012;2023-11-18T11:57:33;102166.25;;;1.82;100.00
19600;BME280;9947;57.722;12.012;2023-11-18T12:00:03;102169.75;;;1.87;100.00
19600;BME280;9947;57.722;12.012;2023-11-18T12:02:48;102148.34;;;1.41;100.00
19600;BME280;9947;57.722;12.012;2023-11-18T12:05:26;102154.72;;;1.31;100.00
19600;BME280;9947;57.722;12.012;2023-11-18T12:07:55;102152.16;;;1.23;100.00
19600;BME280;9947;57.722;12.012;2023-11-18T12:10:26;102157.50;;;1.21;100.00
19600;BME280;9947;57.722;12.012;2023-11-18T12:13:07;102157.50;;;1.21;100.00
19600;BME280;9947;57.722;12.012;2023-11-18T12:15:51;102136.94;;;1.30;100.00
19600;BME280;9947;57.722;12.012;2023-11-18T12:18:23;102130.06;;;1.16;100.00
19600;BME280;9947;57.722;12.012;2023-11-18T12:20:52;102138.03;;;1.18;100.00
19600;BME280;9947;57.722;12.012;2023-11-18T12:23:21;102140.66;;;1.21;100.00
19600;BME280;9947;57.722;12.012;2023-11-18T12:25:51;102140.44;;;1.35;100.00
19600;BME280;9947;57.722;12.012;2023-11-18T12:28:25;102137.56;;;1.47;100.00
19600;BME280;9947;57.722;12.012;2023-11-18T12:30:56;102130.56;;;1.41;100.00
19600;BME280;9947;57.722;12.012;2023-11-18T12:33:25;102115.41;;;1.43;100.00
19600;BME280;9947;57.722;12.012;2023-11-18T12:42:38;102045.00;;;2.01;100.00
19600;BME280;9947;57.722;12.012;2023-11-18T12:45:43;102022.56;;;1.68;100.00
19600;BME280;9947;57.722;12.012;2023-11-18T12:48:14;102007.25;;;1.78;100.00
19600;BME280;9947;57.722;12.012;2023-11-18T12:50:50;102001.63;;;1.93;100.00
19600;BME280;9947;57.722;12.012;2023-11-18T12:53:18;101991.53;;;1.66;100.00
19600;BME280;9947;57.722;12.012;2023-11-18T12:55:52;101980.75;;;1.72;100.00
19600;BME280;9947;57.722;12.012;2023-11-18T12:58:20;101977.34;;;1.64;100.00
19600;BME280;9947;57.722;12.012;2023-11-18T13:00:50;101973.84;;;1.62;100.00
19600;BME280;9947;57.722;12.012;2023-11-18T13:03:24;101957.72;;;1.68;100.00
19600;BME280;9947;57.722;12.012;2023-11-18T13:05:52;101955.03;;;1.69;100.00
19600;BME280;9947;57.722;12.012;2023-11-18T13:08:22;101951.63;;;1.63;100.00
19600;BME280;9947;57.722;12.012;2023-11-18T13:10:54;101958.19;;;1.45;100.00
19600;BME280;9947;57.722;12.012;2023-11-18T13:13:25;101960.69;;;1.52;100.00
19600;BME280;9947;57.722;12.012;2023-11-18T13:15:54;101958.84;;;1.56;100.00
19600;BME280;9947;57.722;12.012;2023-11-18T13:18:21;101962.94;;;1.28;100.00